createdAt,value
2023-02-01T04:00:44.765Z,70.56
2023-02-01T04:08:44.684Z,69.83
2023-02-01T04:16:44.695Z,72.05
2023-02-01T04:17:44.616Z,70.28
2023-02-01T04:27:44.491Z,78.10
2023-02-01T04:28:44.483Z,78.31
2023-02-01T05:59:43.576Z,76.78
2023-02-01T06:00:43.570Z,77.09
2023-02-01T06:01:43.558Z,79.49
2023-02-01T06:02:43.597Z,79.08
2023-02-01T06:18:43.398Z,80.16
2023-02-01T06:19:43.384Z,80.64
2023-02-01T06:20:43.376Z,78.76
2023-02-01T06:21:43.367Z,76.36
2023-02-01T06:22:43.354Z,73.44
2023-02-01T06:23:43.347Z,72.71
2023-02-01T06:24:43.340Z,73.55
2023-02-01T06:25:43.385Z,72.99
2023-02-01T06:26:43.437Z,72.47
2023-02-01T06:27:43.308Z,73.33
2023-02-01T06:28:43.296Z,75.21
2023-02-01T06:29:43.288Z,77.09
2023-02-01T06:30:43.290Z,78.86
2023-02-01T06:31:43.360Z,80.47
2023-02-01T06:38:43.197Z,80.16
2023-02-01T06:39:43.191Z,78.49
2023-02-01T06:40:43.188Z,77.75
2023-02-01T06:41:43.193Z,78.52
2023-02-01T06:42:43.160Z,78.21
2023-02-01T06:43:43.152Z,76.40
2023-02-01T06:44:43.139Z,74.31
2023-02-01T06:45:43.128Z,76.50
2023-02-01T06:46:43.140Z,78.07
2023-02-01T06:47:43.109Z,78.59
2023-02-01T06:48:43.103Z,73.68
2023-02-01T06:49:43.092Z,74.52
2023-02-01T06:50:43.081Z,74.27
2023-02-01T06:51:43.071Z,70.73
2023-02-01T06:52:43.071Z,72.71
2023-02-01T06:53:43.054Z,73.13
2023-02-01T06:54:43.043Z,73.65
2023-02-01T06:55:43.034Z,74.38
2023-02-01T06:56:43.028Z,72.92
2023-02-01T06:57:43.041Z,71.46
2023-02-01T06:58:43.004Z,70.94
2023-02-01T06:59:42.997Z,71.74
2023-02-01T07:00:42.998Z,71.36
2023-02-01T07:01:43.038Z,71.22
2023-02-01T07:02:42.965Z,71.56
2023-02-01T07:03:42.953Z,72.92
2023-02-01T07:04:42.942Z,73.02
2023-02-01T07:05:42.939Z,72.19
2023-02-01T07:06:42.929Z,72.50
2023-02-01T07:07:42.930Z,72.16
2023-02-01T07:08:42.919Z,72.19
2023-02-01T07:09:42.898Z,74.48
2023-02-01T07:10:42.888Z,75.70
2023-02-01T07:11:42.872Z,75.11
2023-02-01T07:12:42.867Z,72.61
2023-02-01T07:13:42.901Z,69.76
2023-02-01T07:14:42.848Z,67.54
2023-02-01T07:15:42.839Z,67.71
2023-02-01T07:16:42.824Z,70.22
2023-02-01T07:17:42.821Z,69.83
2023-02-01T07:18:42.807Z,70.88
2023-02-01T07:19:42.794Z,71.19
2023-02-01T07:20:42.783Z,72.13
2023-02-01T07:21:42.776Z,70.56
2023-02-01T07:22:42.759Z,69.31
2023-02-01T07:23:42.770Z,69.42
2023-02-01T07:24:42.744Z,69.59
2023-02-01T07:25:42.738Z,70.22
2023-02-01T07:26:42.880Z,69.42
2023-02-01T07:27:42.722Z,67.09
2023-02-01T07:28:42.707Z,65.53
2023-02-01T07:29:42.712Z,63.86
2023-02-01T07:30:42.768Z,63.62
2023-02-01T07:31:42.675Z,65.81
2023-02-01T07:32:43.089Z,67.16
2023-02-01T07:33:42.654Z,67.06
2023-02-01T07:34:42.640Z,62.13
2023-02-01T07:35:42.629Z,62.55
2023-02-01T07:36:42.623Z,63.07
2023-02-01T07:37:42.614Z,63.49
2023-02-01T07:38:42.603Z,64.29
2023-02-01T07:39:42.593Z,64.71
2023-02-01T07:40:42.584Z,64.71
2023-02-01T07:41:42.571Z,64.71
2023-02-01T07:42:42.566Z,64.71
2023-02-01T07:43:42.547Z,65.54
2023-02-01T07:44:42.539Z,65.85
2023-02-01T07:45:42.738Z,64.81
2023-02-01T07:46:42.518Z,65.02
2023-02-01T07:47:42.514Z,64.29
2023-02-01T07:48:42.496Z,64.40
2023-02-01T07:49:42.486Z,63.67
2023-02-01T07:50:42.476Z,63.46
2023-02-01T07:51:42.468Z,63.77
2023-02-01T07:52:42.455Z,64.50
2023-02-01T07:53:42.458Z,63.87
2023-02-01T07:54:42.441Z,62.32
2023-02-01T07:55:42.428Z,61.79
2023-02-01T07:56:42.464Z,62.18
2023-02-01T07:57:42.405Z,62.91
2023-02-01T07:58:42.394Z,62.81
2023-02-01T07:59:42.391Z,62.57
2023-02-01T08:00:42.415Z,61.84
2023-02-01T08:01:42.392Z,61.81
2023-02-01T08:02:42.355Z,61.79
2023-02-01T08:03:42.348Z,61.45
2023-02-01T08:04:42.335Z,60.38
2023-02-01T08:05:42.329Z,59.52
2023-02-01T08:06:42.314Z,58.56
2023-02-01T08:07:42.309Z,57.50
2023-02-01T08:08:42.294Z,57.16
2023-02-01T08:09:42.289Z,99.99
2023-02-01T08:10:42.277Z,54.71
2023-02-01T08:11:42.264Z,54.27
2023-02-01T08:12:42.256Z,55.20
2023-02-01T08:13:42.268Z,55.84
2023-02-01T08:14:42.234Z,57.22
2023-02-01T08:15:42.228Z,56.67
2023-02-01T08:16:42.250Z,56.05
2023-02-01T08:17:42.228Z,55.53
2023-02-01T08:18:42.198Z,55.84
2023-02-01T08:19:42.184Z,55.61
2023-02-01T08:20:42.177Z,55.04
2023-02-01T08:21:42.167Z,53.88
2023-02-01T08:22:42.154Z,53.13
2023-02-01T08:23:42.143Z,52.28
2023-02-01T08:24:42.135Z,51.95
2023-02-01T08:25:42.140Z,51.00
2023-02-01T08:26:42.175Z,50.26
2023-02-01T08:27:42.100Z,49.31
2023-02-01T08:28:42.095Z,48.98
2023-02-01T08:29:42.089Z,48.26
2023-02-01T08:30:42.094Z,48.81
2023-02-01T08:31:42.097Z,49.99
2023-02-01T08:32:42.051Z,50.84
2023-02-01T08:33:42.096Z,50.94
2023-02-01T08:34:42.030Z,51.38
2023-02-01T08:35:44.014Z,52.41
2023-02-01T08:36:42.106Z,52.23
2023-02-01T08:37:42.000Z,52.49
2023-02-01T08:38:41.988Z,51.64
2023-02-01T08:39:41.980Z,50.92
2023-02-01T08:40:41.971Z,49.37
2023-02-01T08:41:41.958Z,48.73
2023-02-01T08:42:41.956Z,48.71
2023-02-01T08:43:41.935Z,48.15
2023-02-01T08:44:41.925Z,47.59
2023-02-01T08:45:41.951Z,46.64
2023-02-01T08:46:41.903Z,45.98
2023-02-01T08:47:41.899Z,44.61
2023-02-01T08:48:41.892Z,42.09
2023-02-01T08:49:41.899Z,41.64
2023-02-01T08:50:41.869Z,39.58
2023-02-01T08:51:41.856Z,39.15
2023-02-01T08:52:41.860Z,38.42
2023-02-01T08:53:41.837Z,38.81
2023-02-01T08:54:41.825Z,39.20
2023-02-01T08:55:41.812Z,39.08
2023-02-01T08:56:41.822Z,38.65
2023-02-01T08:57:41.795Z,37.10
2023-02-01T08:58:41.787Z,37.17
2023-02-01T08:59:41.772Z,37.05
2023-02-01T09:00:41.765Z,37.37
2023-02-01T09:01:41.810Z,37.81
2023-02-01T09:02:41.763Z,40.03
2023-02-01T09:03:41.794Z,41.93
2023-02-01T09:04:41.740Z,42.54
2023-02-01T09:05:49.347Z,43.13
2023-02-01T09:06:42.743Z,41.89
2023-02-01T09:07:41.696Z,40.68
2023-02-01T09:08:41.701Z,42.07
2023-02-01T09:09:41.678Z,44.03
2023-02-01T09:10:41.928Z,44.65
2023-02-01T09:11:41.654Z,43.91
2023-02-01T09:12:41.644Z,43.20
2023-02-01T09:13:41.649Z,42.73
2023-02-01T09:14:41.679Z,41.44
2023-02-01T09:15:41.660Z,40.67
2023-02-01T09:16:41.629Z,40.14
2023-02-01T09:17:41.596Z,39.65
2023-02-01T09:18:50.587Z,40.75
2023-02-01T09:19:43.140Z,42.99
2023-02-01T09:20:41.559Z,44.47
2023-02-01T09:21:41.576Z,45.92
2023-02-01T09:22:41.544Z,46.25
2023-02-01T09:23:41.531Z,45.69
2023-02-01T09:24:41.566Z,44.95
2023-02-01T09:25:41.508Z,44.03
2023-02-01T09:26:41.533Z,44.16
2023-02-01T09:27:41.500Z,45.49
2023-02-01T09:28:41.495Z,43.32
2023-02-01T09:29:41.476Z,43.01
2023-02-01T09:30:41.621Z,41.91
2023-02-01T09:31:44.123Z,40.31
2023-02-01T09:32:42.463Z,40.74
2023-02-01T09:33:41.455Z,40.82
2023-02-01T09:34:41.422Z,40.05
2023-02-01T09:35:41.441Z,39.79
2023-02-01T09:36:41.414Z,38.20
2023-02-01T09:37:41.424Z,37.90
2023-02-01T09:38:44.555Z,38.81
2023-02-01T09:39:42.395Z,38.07
2023-02-01T09:40:41.365Z,37.98
2023-02-01T09:41:41.351Z,38.33
2023-02-01T09:42:41.346Z,39.79
2023-02-01T09:43:41.330Z,40.10
2023-02-01T09:44:44.366Z,38.12
2023-02-01T09:45:41.312Z,37.81
2023-02-01T09:46:41.300Z,38.00
2023-02-01T09:47:41.315Z,36.73
2023-02-01T09:48:41.285Z,36.51
2023-02-01T09:49:41.275Z,35.54
2023-02-01T09:50:41.273Z,34.42
2023-02-01T09:51:41.263Z,34.79
2023-02-01T09:52:41.244Z,35.85
2023-02-01T09:53:41.274Z,36.15
2023-02-01T09:54:41.224Z,36.37
2023-02-01T09:55:41.214Z,36.66
2023-02-01T09:56:41.207Z,35.72
2023-02-01T09:57:41.194Z,35.39
2023-02-01T09:58:41.185Z,34.05
2023-02-01T09:59:41.181Z,34.56
2023-02-01T10:00:41.175Z,33.80
2023-02-01T10:01:41.184Z,32.94
2023-02-01T10:02:41.144Z,31.98
2023-02-01T10:03:41.199Z,30.54
2023-02-01T10:04:41.123Z,30.00
2023-02-01T10:05:41.113Z,29.88
2023-02-01T10:06:41.103Z,30.29
2023-02-01T10:07:41.096Z,30.20
2023-02-01T10:08:41.082Z,31.66
2023-02-01T10:09:41.100Z,32.07
2023-02-01T10:10:41.064Z,32.17
2023-02-01T10:11:41.056Z,33.14
2023-02-01T10:12:41.052Z,34.16
2023-02-01T10:13:41.041Z,34.42
2023-02-01T10:14:41.030Z,34.96
2023-02-01T10:15:41.072Z,35.51
2023-02-01T10:16:41.249Z,35.30
2023-02-01T10:17:40.996Z,35.15
2023-02-01T10:18:40.985Z,33.56
2023-02-01T10:19:40.980Z,32.52
2023-02-01T10:20:41.077Z,30.34
2023-02-01T10:21:40.958Z,27.98
2023-02-01T10:23:05.028Z,26.63
2023-02-01T10:23:41.965Z,27.36
2023-02-01T10:24:40.939Z,28.50
2023-02-01T10:25:40.943Z,30.51
2023-02-01T10:26:40.931Z,27.64
2023-02-01T10:27:40.905Z,29.65
2023-02-01T10:28:40.901Z,28.97
2023-02-01T10:29:40.886Z,25.78
2023-02-01T10:30:40.921Z,25.58
2023-02-01T10:31:40.975Z,25.26
2023-02-01T10:32:40.857Z,25.91
2023-02-01T10:33:40.844Z,27.47
2023-02-01T10:34:40.842Z,28.81
2023-02-01T10:35:40.825Z,30.12
2023-02-01T10:36:40.818Z,29.97
2023-02-01T10:37:40.841Z,28.63
2023-02-01T10:38:40.806Z,30.10
2023-02-01T10:39:40.792Z,29.63
2023-02-01T10:40:40.787Z,27.49
2023-02-01T10:41:40.792Z,26.05
2023-02-01T10:42:40.758Z,24.09
2023-02-01T10:43:40.752Z,23.24
2023-02-01T10:44:40.739Z,22.73
2023-02-01T10:45:40.733Z,22.60
2023-02-01T10:46:40.817Z,23.89
2023-02-01T10:47:40.710Z,22.97
2023-02-01T10:48:40.709Z,22.47
2023-02-01T10:49:40.689Z,21.83
2023-02-01T10:50:40.683Z,21.33
2023-02-01T10:52:01.419Z,20.92
2023-02-01T10:52:40.665Z,21.41
2023-02-01T10:53:40.705Z,21.00
2023-02-01T10:55:06.165Z,21.52
2023-02-01T10:55:41.304Z,20.92
2023-02-01T10:56:40.629Z,20.33
2023-02-01T10:59:10.570Z,20.44
2023-02-01T10:59:11.983Z,21.02
2023-02-01T11:00:11.977Z,20.82
2023-02-01T11:01:47.297Z,21.78
2023-02-01T11:02:11.965Z,24.51
2023-02-01T15:48:07.412Z,26.72
2023-02-01T15:48:08.832Z,99.99
2023-02-01T15:50:08.811Z,99.99
2023-02-01T15:51:08.802Z,27.03
2023-02-01T15:52:08.793Z,99.99
2023-02-01T15:53:08.793Z,99.99
2023-02-01T15:54:08.882Z,28.55
2023-02-01T15:56:08.752Z,99.99
2023-02-01T15:57:08.751Z,29.08
2023-02-01T15:58:08.746Z,30.12
2023-02-01T15:59:08.723Z,29.31
2023-02-01T16:00:08.717Z,29.84
2023-02-01T16:01:08.707Z,29.84
2023-02-01T16:02:08.738Z,30.45
2023-02-01T16:03:08.754Z,29.84
2023-02-01T16:04:08.704Z,99.99
2023-02-01T16:05:08.681Z,99.99
2023-02-01T16:06:08.657Z,30.79
2023-02-01T16:07:08.645Z,99.99
2023-02-01T16:08:08.638Z,31.34
2023-02-01T16:09:08.626Z,99.99
2023-02-01T16:10:08.627Z,99.99
2023-02-01T16:11:08.609Z,99.99
2023-02-01T16:12:08.595Z,99.99
2023-02-01T16:13:08.609Z,99.99
2023-02-01T16:16:08.676Z,99.99
2023-02-01T16:18:08.538Z,0.00
2023-02-01T16:19:08.526Z,99.99
2023-02-01T16:20:08.547Z,0.00
2023-02-01T16:21:08.510Z,34.82
2023-02-01T16:22:08.495Z,0.00
2023-02-01T16:23:08.493Z,35.05
2023-02-01T16:24:08.503Z,36.49
2023-02-01T16:25:08.469Z,37.12
2023-02-01T16:26:08.519Z,37.05
2023-02-01T16:27:08.446Z,39.00
2023-02-01T16:28:08.579Z,37.18
2023-02-01T16:29:08.432Z,40.06
2023-02-01T16:30:08.414Z,39.97
2023-02-01T16:31:08.543Z,39.36
2023-02-01T16:32:08.434Z,39.99
2023-02-01T16:33:08.391Z,40.11
2023-02-01T16:35:08.375Z,41.05
2023-02-01T16:36:08.389Z,41.18
2023-02-01T16:38:08.333Z,43.36
2023-02-01T16:39:08.326Z,44.30
2023-02-01T16:40:08.352Z,99.99
2023-02-01T16:41:08.378Z,42.79
2023-02-01T16:42:08.295Z,43.73
2023-02-01T16:43:08.285Z,44.87
2023-02-01T16:44:08.276Z,45.92
2023-02-01T16:45:08.262Z,46.68
2023-02-01T16:46:08.296Z,48.22
2023-02-01T16:47:08.246Z,48.04
2023-02-01T16:48:08.234Z,50.53
2023-02-01T16:49:08.234Z,48.78
2023-02-01T16:50:17.264Z,51.47
2023-02-01T16:51:09.561Z,51.27
2023-02-01T16:52:08.217Z,53.96
2023-02-01T16:53:08.184Z,53.96
2023-02-01T16:54:08.321Z,51.01
2023-02-01T16:55:08.162Z,49.06
2023-02-01T16:56:08.274Z,51.11
2023-02-01T16:57:08.140Z,50.72
2023-02-01T16:58:08.129Z,51.11
2023-02-01T16:59:08.121Z,50.93
2023-02-01T17:00:22.259Z,48.98
2023-02-01T17:01:09.228Z,49.79
2023-02-01T17:02:08.089Z,49.92
2023-02-01T17:03:08.077Z,50.85
2023-02-01T17:04:08.143Z,51.98
2023-02-01T17:05:08.097Z,51.26
2023-02-01T17:06:08.047Z,50.43
2023-02-01T17:07:08.041Z,47.37
2023-02-01T17:08:08.051Z,46.14
2023-02-01T17:10:08.013Z,48.40
2023-02-01T17:11:08.009Z,48.73
2023-02-01T17:15:07.958Z,47.60
2023-02-01T17:16:08.093Z,48.52
2023-02-01T17:17:07.981Z,47.08
2023-02-01T17:18:07.923Z,48.01
2023-02-01T17:19:07.933Z,50.17
2023-02-01T17:20:07.943Z,49.79
2023-02-01T17:21:07.911Z,50.40
2023-02-01T17:22:07.885Z,50.92
2023-02-01T17:23:07.880Z,50.84
2023-02-01T17:24:07.899Z,51.87
2023-02-01T17:25:07.864Z,48.05
2023-02-01T17:26:07.844Z,49.66
2023-02-01T17:27:07.835Z,49.24
2023-02-01T17:28:07.823Z,48.52
2023-02-01T17:32:07.917Z,46.61
2023-02-01T17:40:07.722Z,46.55
2023-02-01T17:41:07.729Z,46.02
2023-02-01T17:42:07.681Z,46.35
2023-02-01T17:46:07.662Z,44.18
2023-02-01T17:47:07.631Z,45.31
2023-02-01T17:52:07.575Z,48.33
2023-02-01T17:53:07.568Z,48.46
2023-02-01T17:54:07.556Z,49.80
2023-02-01T17:55:07.552Z,48.55
2023-02-01T17:56:07.561Z,46.92
2023-02-01T18:03:07.465Z,42.05
2023-02-01T18:08:07.432Z,42.77
2023-02-01T18:13:07.392Z,44.73
2023-02-01T18:14:07.363Z,45.56
2023-02-01T18:15:07.346Z,45.36
2023-02-01T18:16:07.341Z,45.46
2023-02-01T18:17:07.351Z,45.87
2023-02-01T18:18:07.320Z,47.11
2023-02-01T18:19:07.316Z,46.00
2023-02-01T18:20:07.302Z,45.37
2023-02-01T18:21:07.288Z,45.27
2023-02-01T18:23:07.265Z,49.41
2023-02-01T18:24:07.257Z,47.76
2023-02-01T18:25:07.277Z,46.74
2023-02-01T18:32:07.182Z,48.19
2023-02-01T18:36:07.142Z,48.50
2023-02-01T18:41:07.086Z,49.12
2023-02-01T18:47:07.032Z,48.29
2023-02-01T18:48:07.014Z,49.53
2023-02-01T18:50:06.998Z,48.83
2023-02-01T18:51:06.988Z,46.04
2023-02-01T18:52:06.979Z,43.97
2023-02-01T19:02:06.885Z,45.81
2023-02-01T19:13:06.768Z,45.42
